Terminal Aerodrome Forecast
Issued by NWS

Home | Current Version | Previous Version | Graphics & Text | Print | Product List | Glossary On
Versions: 1 2 3 4 5 6 7 8 9 10 11 12 13
482
FTUS43 KFGF 232339
TAFBJI
TAF
KBJI 232339Z 2400/2424 35008KT P6SM BKN030
     FM241200 01008KT P6SM SCT080
     FM241900 35012KT P6SM SCT080=

USA.gov is the U.S. government's official web portal to all federal, state and local government web resources and services.